Arnold Palmer Regional Airport Latrobe US
ICAO: KLBE
IATA: LBE
Category: Medium
Scheduled Services: Yes

Elevation: 1199 ft
TransAlt. 18000 ft.

Airport Communications:
ATIS:118.375
AWOS 3:118.375
CLEVELAND CNTR:124.4
CTAF:125
GND:121.8
TWR:125

KLBE Zoom In..

Runways:

(A) RW 03 length 3609 ft width 75 ft
---- / hdg 29

(B) RW 05 length 8222 ft width 100 ft
---- / hdg 55

(C) RW 21 length 3609 ft width 75 ft
---- / hdg 209

(D) RW 23 length 8222 ft width 100 ft
ILS 110.90 / hdg 235

Location; KLBE
Day. 22 / Time. 21.50 Zulu
* Altimeter: 30.01
* Temperature: 06° c. 42.8°f.
* Wind from: 270° Speed 14 kn.
Dewpoint: -09° c.
Visibility: 10 Statute Miles.
Clouds: Scattered 6000 ft.
Clouds: Scattered 9000 ft.
Clouds: Broken 12000 ft.

KLBE 222150Z 27014KT 10SM SCT060 SCT090 BKN120 06/M09 A3001

Going to: --> -->


Wind From 270°
Speed 14 kn.

 
 
jpsmedia worldairports.se 2021   terms of use